Time;durP1;ratioP1;P1;durP2;ratioP2;P2;SDS_P1;SDS_P2;PMS_P1;PMS_P2;Temp;Humidity;BMP_temperature;BMP_pressure;BME280_temperature;BME280_humidity;BME280_pressure;Samples;Min_cycle;Max_cycle;Signal;HPM_P1;HPM_P2
2022/08/06 00:00:35;;;;;;;;;;;25.40;67.30;;;;;;6217060;23;20311;-96
2022/08/06 00:03:02;;;;;;;;;;;25.40;67.00;;;;;;6219579;23;20033;-96
2022/08/06 00:05:27;;;;;;;;;;;25.50;66.40;;;;;;6219376;23;19931;-96
2022/08/06 00:07:55;;;;;;;;;;;25.50;66.50;;;;;;6218372;23;20349;-96
2022/08/06 00:10:20;;;;;;;;;;;25.60;66.30;;;;;;6192582;23;19940;-96
2022/08/06 00:12:46;;;;;;;;;;;25.60;67.70;;;;;;6220028;23;20366;-96
2022/08/06 00:15:12;;;;;;;;;;;25.40;66.70;;;;;;6219558;23;19943;-96
2022/08/06 00:17:38;;;;;;;;;;;25.10;67.30;;;;;;6193544;23;20375;-96
2022/08/06 00:20:04;;;;;;;;;;;25.10;68.40;;;;;;6220051;23;19940;-96
2022/08/06 00:22:30;;;;;;;;;;;25.00;70.30;;;;;;6220765;23;20374;-96
2022/08/06 00:24:56;;;;;;;;;;;24.90;70.40;;;;;;6221617;23;19967;-96
2022/08/06 00:27:21;;;;;;;;;;;24.80;70.90;;;;;;6221390;23;19980;-96
2022/08/06 00:29:47;;;;;;;;;;;24.60;70.40;;;;;;6220384;23;19938;-96
2022/08/06 00:32:13;;;;;;;;;;;24.50;70.80;;;;;;6221245;23;19943;-96
2022/08/06 00:34:38;;;;;;;;;;;24.50;71.00;;;;;;6194152;23;19939;-96
2022/08/06 00:37:04;;;;;;;;;;;24.40;71.30;;;;;;6221024;23;19954;-96
2022/08/06 00:39:29;;;;;;;;;;;24.40;71.10;;;;;;6195050;23;19943;-96
2022/08/06 00:41:55;;;;;;;;;;;24.30;71.10;;;;;;6222533;23;19932;-96
2022/08/06 00:44:21;;;;;;;;;;;24.50;69.80;;;;;;6195896;23;19969;-96
2022/08/06 00:46:47;;;;;;;;;;;24.70;69.70;;;;;;6222469;23;19949;-96
2022/08/06 00:49:13;;;;;;;;;;;24.80;68.40;;;;;;6221447;23;19938;-96
2022/08/06 00:51:39;;;;;;;;;;;24.80;67.70;;;;;;6221084;23;19943;-96
2022/08/06 00:54:05;;;;;;;;;;;25.00;66.50;;;;;;6221495;23;19980;-96
2022/08/06 00:56:30;;;;;;;;;;;25.20;67.60;;;;;;6220378;23;19938;-96
2022/08/06 00:58:56;;;;;;;;;;;25.30;66.80;;;;;;6219479;23;20013;-96
2022/08/06 01:01:22;;;;;;;;;;;25.40;65.80;;;;;;6220442;23;20365;-96
2022/08/06 01:03:47;;;;;;;;;;;25.40;67.60;;;;;;6221698;23;20268;-96
2022/08/06 01:06:13;;;;;;;;;;;25.20;67.30;;;;;;6221799;23;19941;-96
2022/08/06 01:08:39;;;;;;;;;;;25.00;68.20;;;;;;6196395;23;19990;-96
2022/08/06 01:11:05;;;;;;;;;;;24.80;67.20;;;;;;6198199;23;20274;-96
2022/08/06 01:13:31;;;;;;;;;;;24.80;68.60;;;;;;6226243;23;19941;-96
2022/08/06 01:16:02;;;;;;;;;;;24.80;68.50;;;;;;6225600;23;19954;-96
2022/08/06 01:18:30;;;;;;;;;;;24.80;66.30;;;;;;6224965;23;19967;-96
2022/08/06 01:21:10;;;;;;;;;;;24.80;66.00;;;;;;6226076;23;19939;-96
2022/08/06 01:23:41;;;;;;;;;;;25.10;66.40;;;;;;6226863;23;19946;-96
2022/08/06 01:26:22;;;;;;;;;;;25.20;67.60;;;;;;6227481;23;19932;-96
2022/08/06 01:28:58;;;;;;;;;;;25.20;68.50;;;;;;6226972;23;19939;-96
2022/08/06 01:31:41;;;;;;;;;;;25.20;68.10;;;;;;6226506;23;19993;-96
2022/08/06 01:34:13;;;;;;;;;;;25.20;66.10;;;;;;6225908;23;19935;-96
2022/08/06 01:36:42;;;;;;;;;;;25.20;66.10;;;;;;6199309;23;20031;-96
2022/08/06 01:39:08;;;;;;;;;;;25.30;64.90;;;;;;6225905;23;19990;-96
2022/08/06 01:41:38;;;;;;;;;;;25.30;64.70;;;;;;6199901;23;20358;-96
2022/08/06 01:44:13;;;;;;;;;;;25.20;64.70;;;;;;6227925;23;19939;-96
2022/08/06 01:46:49;;;;;;;;;;;25.30;65.60;;;;;;6230667;23;20008;-96
2022/08/06 01:49:22;;;;;;;;;;;25.40;64.70;;;;;;6205361;23;19946;-96
2022/08/06 01:51:49;;;;;;;;;;;25.40;64.70;;;;;;6229686;23;19937;-96
2022/08/06 01:54:16;;;;;;;;;;;25.40;65.10;;;;;;6230127;23;20299;-96
2022/08/06 01:56:44;;;;;;;;;;;25.30;64.90;;;;;;6201414;23;19971;-96
2022/08/06 01:59:10;;;;;;;;;;;25.20;63.90;;;;;;6199485;23;19974;-96
2022/08/06 02:01:36;;;;;;;;;;;25.30;63.00;;;;;;6199214;23;19954;-96
2022/08/06 02:04:02;;;;;;;;;;;25.30;63.20;;;;;;6225419;23;20012;-96
2022/08/06 02:06:43;;;;;;;;;;;25.40;62.20;;;;;;6198746;23;19939;-96
2022/08/06 02:09:11;;;;;;;;;;;25.40;61.90;;;;;;6227859;23;19941;-96
2022/08/06 02:11:38;;;;;;;;;;;25.40;63.70;;;;;;6228638;23;19941;-96
2022/08/06 02:14:07;;;;;;;;;;;25.50;65.20;;;;;;6202744;23;19943;-96
2022/08/06 02:16:34;;;;;;;;;;;25.50;65.80;;;;;;6202195;23;19937;-96
2022/08/06 02:19:02;;;;;;;;;;;25.40;65.00;;;;;;6200808;23;20372;-96
2022/08/06 02:21:30;;;;;;;;;;;25.30;63.90;;;;;;6228567;23;19933;-96
2022/08/06 02:23:56;;;;;;;;;;;25.30;66.10;;;;;;6202687;23;19940;-96
2022/08/06 02:26:23;;;;;;;;;;;25.20;67.10;;;;;;6230044;23;19938;-96
2022/08/06 02:28:50;;;;;;;;;;;24.80;66.40;;;;;;6202480;23;19946;-96
2022/08/06 02:31:16;;;;;;;;;;;24.50;67.80;;;;;;6229465;23;19941;-96
2022/08/06 02:33:42;;;;;;;;;;;24.30;68.30;;;;;;6229932;23;19935;-96
2022/08/06 02:36:14;;;;;;;;;;;24.40;68.20;;;;;;6204226;23;19952;-96
2022/08/06 02:38:43;;;;;;;;;;;24.60;69.40;;;;;;6203676;23;19960;-96
2022/08/06 02:41:18;;;;;;;;;;;24.50;67.30;;;;;;6204091;23;19941;-96
2022/08/06 02:43:48;;;;;;;;;;;24.40;67.60;;;;;;6229777;23;19934;-96
2022/08/06 02:46:17;;;;;;;;;;;24.40;66.30;;;;;;6229819;23;19935;-96
2022/08/06 02:48:49;;;;;;;;;;;24.40;66.10;;;;;;6229927;23;19944;-96
2022/08/06 02:51:18;;;;;;;;;;;24.50;66.40;;;;;;6205288;23;19943;-96
2022/08/06 02:53:55;;;;;;;;;;;24.70;67.10;;;;;;6229302;23;19931;-96
2022/08/06 02:56:22;;;;;;;;;;;24.70;65.20;;;;;;6228174;23;20017;-96
2022/08/06 02:58:49;;;;;;;;;;;24.70;65.70;;;;;;6199794;23;20054;-96
2022/08/06 03:01:22;;;;;;;;;;;24.70;67.20;;;;;;6200267;23;19971;-96
2022/08/06 03:03:49;;;;;;;;;;;24.60;66.70;;;;;;6199824;23;20016;-96
2022/08/06 03:06:15;;;;;;;;;;;24.60;65.60;;;;;;6196043;23;19938;-96
2022/08/06 03:08:41;;;;;;;;;;;24.50;65.90;;;;;;6198131;23;19950;-96
2022/08/06 03:11:08;;;;;;;;;;;24.40;65.30;;;;;;6227281;23;19932;-96
2022/08/06 03:13:34;;;;;;;;;;;24.40;64.30;;;;;;6201446;23;19941;-96
2022/08/06 03:16:00;;;;;;;;;;;24.50;63.90;;;;;;6201675;23;19941;-96
2022/08/06 03:18:26;;;;;;;;;;;24.50;64.10;;;;;;6202274;23;19965;-96
2022/08/06 03:20:52;;;;;;;;;;;24.60;63.60;;;;;;6227668;23;19954;-96
2022/08/06 03:23:19;;;;;;;;;;;24.60;63.50;;;;;;6201415;23;20313;-96
2022/08/06 03:25:46;;;;;;;;;;;24.70;63.70;;;;;;6201926;23;19939;-96
2022/08/06 03:28:12;;;;;;;;;;;24.70;63.70;;;;;;6228215;23;19931;-96
2022/08/06 03:30:38;;;;;;;;;;;24.70;63.70;;;;;;6201389;23;20322;-96
2022/08/06 03:33:06;;;;;;;;;;;24.70;62.90;;;;;;6200279;23;19958;-96
2022/08/06 03:35:34;;;;;;;;;;;24.70;62.80;;;;;;6227726;23;19941;-96
2022/08/06 03:38:00;;;;;;;;;;;24.80;64.60;;;;;;6201245;23;20368;-96
2022/08/06 03:40:26;;;;;;;;;;;24.90;65.10;;;;;;6229321;23;20019;-96
2022/08/06 03:42:52;;;;;;;;;;;24.90;62.30;;;;;;6228327;23;19938;-96
2022/08/06 03:45:18;;;;;;;;;;;24.80;62.80;;;;;;6228949;23;20009;-96
2022/08/06 03:47:48;;;;;;;;;;;24.90;63.40;;;;;;6203288;23;19934;-96
2022/08/06 03:50:27;;;;;;;;;;;24.90;63.50;;;;;;6230834;23;19964;-96
2022/08/06 03:52:55;;;;;;;;;;;25.00;63.00;;;;;;6230806;23;20361;-96
2022/08/06 03:55:24;;;;;;;;;;;25.00;63.40;;;;;;6203888;23;19946;-96
2022/08/06 03:57:52;;;;;;;;;;;25.10;63.60;;;;;;6229444;23;19962;-96
2022/08/06 04:00:18;;;;;;;;;;;25.10;63.90;;;;;;6226966;23;19949;-96
2022/08/06 04:02:46;;;;;;;;;;;25.00;64.30;;;;;;6227479;23;19930;-96
2022/08/06 04:05:15;;;;;;;;;;;24.90;64.90;;;;;;6224514;23;19937;-96
2022/08/06 04:07:41;;;;;;;;;;;24.70;67.60;;;;;;6198122;23;19940;-96
2022/08/06 04:10:07;;;;;;;;;;;24.60;68.40;;;;;;6224678;23;19985;-96
2022/08/06 04:12:33;;;;;;;;;;;24.30;68.20;;;;;;6196690;23;19935;-96
2022/08/06 04:14:59;;;;;;;;;;;24.20;68.20;;;;;;6222813;23;19935;-96
2022/08/06 04:17:26;;;;;;;;;;;24.20;67.20;;;;;;6220684;23;19965;-96
2022/08/06 04:19:52;;;;;;;;;;;24.20;66.80;;;;;;6218646;23;19939;-96
2022/08/06 04:22:18;;;;;;;;;;;24.30;67.00;;;;;;6219330;23;19994;-96
2022/08/06 04:24:44;;;;;;;;;;;24.40;66.90;;;;;;6219452;23;19940;-96
2022/08/06 04:27:09;;;;;;;;;;;24.30;67.20;;;;;;6219831;23;19934;-96
2022/08/06 04:29:36;;;;;;;;;;;24.30;67.50;;;;;;6218875;23;19935;-96
2022/08/06 04:32:02;;;;;;;;;;;24.30;67.50;;;;;;6192109;23;20372;-96
2022/08/06 04:34:28;;;;;;;;;;;24.30;67.50;;;;;;6193008;23;19953;-96
2022/08/06 04:36:55;;;;;;;;;;;24.30;67.00;;;;;;6218156;23;19976;-96
2022/08/06 04:39:21;;;;;;;;;;;24.40;67.10;;;;;;6218261;23;19942;-96
2022/08/06 04:41:47;;;;;;;;;;;24.40;67.00;;;;;;6218086;23;20366;-96
2022/08/06 04:44:12;;;;;;;;;;;24.40;68.30;;;;;;6190193;23;19941;-96
2022/08/06 04:46:38;;;;;;;;;;;24.40;66.60;;;;;;6218285;23;20059;-96
2022/08/06 04:49:04;;;;;;;;;;;24.40;66.60;;;;;;6218222;23;19935;-96
2022/08/06 04:51:30;;;;;;;;;;;24.50;67.10;;;;;;6217888;23;20352;-96
2022/08/06 04:53:56;;;;;;;;;;;24.50;67.60;;;;;;6195383;23;19963;-96
2022/08/06 04:56:21;;;;;;;;;;;24.50;64.80;;;;;;6218961;23;20337;-96
2022/08/06 04:58:47;;;;;;;;;;;24.60;64.90;;;;;;6189932;23;20030;-96
2022/08/06 05:01:13;;;;;;;;;;;24.70;64.80;;;;;;6217004;23;19976;-96
2022/08/06 05:03:38;;;;;;;;;;;24.80;64.30;;;;;;6220925;23;19936;-96
2022/08/06 05:06:19;;;;;;;;;;;24.90;64.70;;;;;;6217021;23;19927;-96
2022/08/06 05:11:53;;;;;;;;;;;25.00;64.50;;;;;;5116644;27;20319;-96
2022/08/06 05:14:24;;;;;;;;;;;24.90;65.50;;;;;;5119728;28;19946;-96
2022/08/06 05:16:50;;;;;;;;;;;25.00;65.70;;;;;;5120962;28;19941;-96
2022/08/06 05:19:28;;;;;;;;;;;25.00;65.10;;;;;;5121887;28;19939;-96
2022/08/06 05:21:55;;;;;;;;;;;25.10;64.80;;;;;;5121762;28;19941;-96
2022/08/06 05:24:21;;;;;;;;;;;25.30;64.10;;;;;;5121230;28;19948;-96
2022/08/06 05:26:48;;;;;;;;;;;25.40;63.20;;;;;;5122120;28;19942;-96
2022/08/06 05:29:17;;;;;;;;;;;25.50;62.90;;;;;;5121351;28;19945;-96
2022/08/06 05:31:43;;;;;;;;;;;25.60;62.80;;;;;;5120792;28;20081;-96
2022/08/06 05:34:09;;;;;;;;;;;25.60;63.50;;;;;;5124934;28;19937;-96
2022/08/06 05:36:37;;;;;;;;;;;25.70;64.50;;;;;;5126223;28;19968;-96
2022/08/06 05:39:06;;;;;;;;;;;25.80;64.60;;;;;;5127932;28;19948;-96
2022/08/06 05:41:34;;;;;;;;;;;25.80;65.10;;;;;;5127445;28;19947;-97
2022/08/06 05:44:00;;;;;;;;;;;25.90;65.60;;;;;;5127644;28;19966;-96
2022/08/06 05:46:28;;;;;;;;;;;26.10;64.90;;;;;;5127569;28;19940;-96
2022/08/06 05:49:00;;;;;;;;;;;26.30;64.30;;;;;;5126746;28;20016;-96
2022/08/06 05:51:38;;;;;;;;;;;26.40;63.20;;;;;;5128380;28;19968;-96
2022/08/06 05:54:08;;;;;;;;;;;26.70;62.90;;;;;;5123654;28;19942;-96
2022/08/06 05:56:39;;;;;;;;;;;26.70;62.70;;;;;;5116690;28;19970;-96
2022/08/06 05:59:07;;;;;;;;;;;26.90;61.60;;;;;;5114026;28;19975;-96
2022/08/06 06:01:35;;;;;;;;;;;27.00;60.10;;;;;;5115746;28;19941;-97
2022/08/06 06:04:01;;;;;;;;;;;27.10;60.50;;;;;;5117444;28;19949;-96
2022/08/06 06:06:26;;;;;;;;;;;27.20;59.20;;;;;;5118573;28;19943;-96
2022/08/06 06:08:53;;;;;;;;;;;27.30;60.10;;;;;;5120956;28;20029;-96
2022/08/06 06:11:19;;;;;;;;;;;27.40;60.30;;;;;;5119897;28;20423;-96
2022/08/06 06:13:50;;;;;;;;;;;27.60;58.80;;;;;;5127538;28;20011;-96
2022/08/06 06:16:28;;;;;;;;;;;27.70;58.40;;;;;;5134662;28;19957;-97
2022/08/06 06:19:16;;;;;;;;;;;27.80;57.50;;;;;;5133895;28;19933;-96
2022/08/06 06:22:00;;;;;;;;;;;27.90;57.50;;;;;;5128763;28;19997;-97
2022/08/06 06:24:29;;;;;;;;;;;28.00;57.80;;;;;;5118538;28;19942;-96
2022/08/06 06:27:05;;;;;;;;;;;28.20;57.00;;;;;;5118561;28;19932;-97
2022/08/06 06:29:37;;;;;;;;;;;28.20;57.10;;;;;;5119722;28;19938;-96
2022/08/06 06:32:22;;;;;;;;;;;28.30;56.30;;;;;;5118873;28;19939;-97
2022/08/06 06:35:00;;;;;;;;;;;28.50;54.80;;;;;;5118557;28;19929;-97
2022/08/06 06:37:45;;;;;;;;;;;28.60;53.80;;;;;;5118241;28;19962;-96
2022/08/06 06:40:34;;;;;;;;;;;28.70;54.30;;;;;;5119231;28;20006;-96
2022/08/06 06:43:27;;;;;;;;;;;28.90;53.90;;;;;;5118181;28;19932;-96
2022/08/06 06:46:02;;;;;;;;;;;28.90;52.60;;;;;;5092390;28;19946;-96
2022/08/06 06:48:32;;;;;;;;;;;29.10;51.20;;;;;;5114585;28;19943;-96
2022/08/06 06:51:01;;;;;;;;;;;29.10;50.80;;;;;;5114722;28;19961;-97
2022/08/06 06:53:29;;;;;;;;;;;29.20;51.20;;;;;;5113718;28;19978;-96
2022/08/06 06:55:56;;;;;;;;;;;29.20;52.20;;;;;;5114340;28;19941;-96
2022/08/06 06:58:31;;;;;;;;;;;29.20;52.00;;;;;;5114790;28;19947;-97
2022/08/06 07:00:58;;;;;;;;;;;29.30;51.80;;;;;;5114741;28;19940;-96
2022/08/06 07:03:28;;;;;;;;;;;29.30;51.30;;;;;;5113748;28;19945;-96
2022/08/06 07:05:55;;;;;;;;;;;29.50;51.70;;;;;;5115864;28;19944;-96
2022/08/06 07:08:24;;;;;;;;;;;29.50;53.20;;;;;;5116347;28;20470;-97
2022/08/06 07:10:51;;;;;;;;;;;29.60;52.30;;;;;;5114349;28;19965;-96
2022/08/06 07:13:17;;;;;;;;;;;29.70;51.00;;;;;;5113872;28;19948;-96
2022/08/06 07:15:45;;;;;;;;;;;29.70;49.80;;;;;;5112452;28;19959;-96
2022/08/06 07:18:11;;;;;;;;;;;29.70;49.90;;;;;;5114146;28;19932;-96
2022/08/06 07:20:38;;;;;;;;;;;29.80;49.40;;;;;;5113016;28;20014;-97
2022/08/06 07:23:06;;;;;;;;;;;29.90;49.40;;;;;;5108873;28;19947;-97
2022/08/06 07:25:37;;;;;;;;;;;30.00;48.20;;;;;;5110320;28;19940;-96
2022/08/06 07:28:05;;;;;;;;;;;30.20;46.10;;;;;;5107924;28;19953;-96
2022/08/06 07:30:38;;;;;;;;;;;30.20;46.20;;;;;;5113558;28;19941;-97
2022/08/06 07:33:05;;;;;;;;;;;30.30;46.00;;;;;;5112151;28;20055;-96
2022/08/06 07:35:34;;;;;;;;;;;30.50;46.20;;;;;;5116252;28;19995;-96
2022/08/06 07:38:26;;;;;;;;;;;30.60;47.60;;;;;;5119400;28;19967;-97
2022/08/06 07:40:55;;;;;;;;;;;30.70;47.40;;;;;;5118136;28;19925;-96
2022/08/06 07:45:58;;;;;;;;;;;30.70;47.70;;;;;;5127414;22;19983;-96
2022/08/06 07:48:30;;;;;;;;;;;30.70;48.20;;;;;;5069611;28;19950;-96
2022/08/06 07:50:57;;;;;;;;;;;30.80;46.30;;;;;;5054550;28;19977;-96
2022/08/06 07:53:23;;;;;;;;;;;30.80;46.50;;;;;;5070757;28;19985;-96
2022/08/06 07:55:49;;;;;;;;;;;30.90;47.00;;;;;;5070249;28;20463;-96
2022/08/06 07:58:16;;;;;;;;;;;30.90;46.70;;;;;;5069330;28;19936;-96
2022/08/06 08:00:43;;;;;;;;;;;31.00;46.80;;;;;;5071017;28;19942;-96
2022/08/06 08:08:39;;;;;;;;;;;31.20;47.00;;;;;;5070233;28;19947;-96
2022/08/06 08:11:06;;;;;;;;;;;31.20;47.20;;;;;;5069394;28;19958;-96
2022/08/06 08:13:32;;;;;;;;;;;31.30;46.80;;;;;;5067111;28;20422;-96
2022/08/06 08:15:58;;;;;;;;;;;31.40;46.30;;;;;;5071189;28;20023;-96
2022/08/06 08:18:28;;;;;;;;;;;31.50;45.10;;;;;;5067821;28;19939;-96
2022/08/06 08:20:56;;;;;;;;;;;31.60;44.20;;;;;;5066006;28;19945;-96
2022/08/06 08:23:23;;;;;;;;;;;31.70;44.50;;;;;;5068731;28;19943;-96
2022/08/06 08:25:49;;;;;;;;;;;31.60;43.50;;;;;;5065558;28;20491;-96
2022/08/06 08:28:14;;;;;;;;;;;31.70;43.70;;;;;;5063320;28;19951;-97
2022/08/06 08:30:40;;;;;;;;;;;31.70;43.30;;;;;;5065030;28;19966;-96
2022/08/06 08:33:09;;;;;;;;;;;31.70;44.00;;;;;;5082297;28;20403;-96
2022/08/06 08:35:35;;;;;;;;;;;31.80;43.80;;;;;;5066033;28;19960;-96
2022/08/06 08:38:01;;;;;;;;;;;31.90;43.80;;;;;;5065615;28;19946;-96
2022/08/06 08:40:28;;;;;;;;;;;32.00;42.30;;;;;;5066946;28;19943;-96
2022/08/06 08:42:57;;;;;;;;;;;32.00;40.60;;;;;;5066965;28;19941;-96
2022/08/06 08:45:24;;;;;;;;;;;32.10;42.80;;;;;;5065903;28;19980;-96
2022/08/06 08:47:50;;;;;;;;;;;32.20;42.80;;;;;;5066264;28;19943;-96
2022/08/06 08:50:22;;;;;;;;;;;32.20;41.10;;;;;;5067038;28;19962;-96
2022/08/06 08:52:49;;;;;;;;;;;32.20;41.40;;;;;;5067546;28;19943;-96
2022/08/06 08:55:16;;;;;;;;;;;32.30;41.20;;;;;;5064551;28;19944;-96
2022/08/06 08:57:42;;;;;;;;;;;32.40;40.70;;;;;;5063158;28;19937;-96
2022/08/06 09:00:08;;;;;;;;;;;32.50;40.70;;;;;;5067435;28;19944;-96
2022/08/06 09:02:36;;;;;;;;;;;32.50;41.70;;;;;;5064666;28;19941;-96
2022/08/06 09:05:02;;;;;;;;;;;32.60;41.20;;;;;;5063214;28;19944;-96
2022/08/06 09:07:28;;;;;;;;;;;32.60;41.00;;;;;;5061429;28;19945;-96
2022/08/06 09:09:54;;;;;;;;;;;32.60;41.20;;;;;;5064579;28;20068;-96
2022/08/06 09:12:20;;;;;;;;;;;32.70;42.10;;;;;;5064757;28;19969;-96
2022/08/06 09:14:46;;;;;;;;;;;32.90;42.90;;;;;;5063707;28;19935;-96
2022/08/06 09:17:12;;;;;;;;;;;33.00;41.20;;;;;;5057391;28;20029;-96
2022/08/06 09:19:37;;;;;;;;;;;33.10;40.60;;;;;;5054548;28;20059;-96
2022/08/06 09:22:03;;;;;;;;;;;33.20;41.00;;;;;;5053665;28;20371;-96
2022/08/06 09:24:29;;;;;;;;;;;33.20;40.70;;;;;;5053966;28;20300;-96
2022/08/06 09:27:01;;;;;;;;;;;33.30;39.70;;;;;;5052690;28;19950;-96
2022/08/06 09:29:26;;;;;;;;;;;33.40;39.20;;;;;;5054237;28;19937;-96
2022/08/06 09:31:52;;;;;;;;;;;33.40;39.40;;;;;;5054955;28;19936;-96
2022/08/06 09:34:18;;;;;;;;;;;33.50;40.40;;;;;;5056138;28;19937;-96
2022/08/06 09:36:44;;;;;;;;;;;33.50;40.80;;;;;;5054882;28;19960;-96
2022/08/06 09:39:10;;;;;;;;;;;33.60;39.90;;;;;;5054415;28;19939;-96
2022/08/06 09:41:44;;;;;;;;;;;33.60;38.70;;;;;;5054029;28;19943;-96
2022/08/06 09:44:11;;;;;;;;;;;33.70;39.20;;;;;;5054022;28;20061;-96
2022/08/06 09:46:43;;;;;;;;;;;33.70;38.90;;;;;;5054502;28;19994;-96
2022/08/06 09:49:10;;;;;;;;;;;33.90;38.50;;;;;;5056358;28;19944;-96
2022/08/06 09:51:37;;;;;;;;;;;33.90;39.00;;;;;;5060639;28;19956;-96
2022/08/06 09:54:04;;;;;;;;;;;33.90;38.50;;;;;;5059406;28;19948;-96
2022/08/06 09:56:30;;;;;;;;;;;34.00;38.00;;;;;;5061372;28;19948;-96
2022/08/06 09:58:59;;;;;;;;;;;34.00;38.40;;;;;;5062773;28;19972;-96
2022/08/06 10:01:25;;;;;;;;;;;34.20;39.10;;;;;;5062679;28;19946;-96
2022/08/06 10:03:52;;;;;;;;;;;34.40;38.50;;;;;;5065037;28;19952;-96
2022/08/06 10:06:20;;;;;;;;;;;34.60;37.80;;;;;;5065376;28;19949;-96
2022/08/06 10:08:50;;;;;;;;;;;34.70;38.30;;;;;;5067495;28;19943;-96
2022/08/06 10:11:31;;;;;;;;;;;34.90;39.10;;;;;;5067238;28;19962;-96
2022/08/06 10:13:57;;;;;;;;;;;35.00;38.30;;;;;;5069832;28;19958;-96
2022/08/06 10:16:30;;;;;;;;;;;35.10;38.10;;;;;;5066371;28;20008;-97
2022/08/06 10:18:57;;;;;;;;;;;35.20;36.90;;;;;;5074239;28;19942;-96
2022/08/06 10:21:27;;;;;;;;;;;35.30;37.10;;;;;;5075971;28;20011;-96
2022/08/06 10:23:55;;;;;;;;;;;35.30;37.50;;;;;;5075260;28;19940;-96
2022/08/06 10:26:30;;;;;;;;;;;35.50;36.00;;;;;;5074938;28;19943;-96
2022/08/06 10:29:01;;;;;;;;;;;35.50;35.70;;;;;;5075968;28;19943;-96
2022/08/06 10:31:27;;;;;;;;;;;35.60;36.70;;;;;;5074822;28;19990;-96
2022/08/06 10:34:00;;;;;;;;;;;35.60;35.00;;;;;;5074565;28;19983;-97
2022/08/06 10:36:30;;;;;;;;;;;35.70;36.30;;;;;;5075911;28;19955;-96
2022/08/06 10:38:57;;;;;;;;;;;35.70;34.90;;;;;;5076807;28;19945;-97
2022/08/06 10:41:34;;;;;;;;;;;35.90;34.30;;;;;;5075242;28;19947;-96
2022/08/06 10:44:01;;;;;;;;;;;35.90;34.40;;;;;;5075344;28;19945;-96
2022/08/06 10:46:28;;;;;;;;;;;36.00;35.20;;;;;;5076413;28;19926;-96
2022/08/06 10:48:56;;;;;;;;;;;36.10;34.90;;;;;;5077119;28;20036;-97
2022/08/06 10:51:29;;;;;;;;;;;36.20;34.90;;;;;;5060007;28;20002;-96
2022/08/06 10:53:56;;;;;;;;;;;36.30;34.50;;;;;;5076985;28;19965;-96
2022/08/06 10:56:26;;;;;;;;;;;36.40;33.00;;;;;;5077101;28;19952;-96
2022/08/06 10:58:54;;;;;;;;;;;36.40;35.60;;;;;;5078427;28;19931;-96
2022/08/06 11:01:19;;;;;;;;;;;36.60;33.20;;;;;;5075592;28;20005;-97
2022/08/06 11:04:00;;;;;;;;;;;36.70;33.50;;;;;;5076950;28;19941;-96
2022/08/06 11:06:29;;;;;;;;;;;36.80;32.80;;;;;;5075559;28;19987;-96
2022/08/06 11:09:05;;;;;;;;;;;36.70;32.50;;;;;;5074166;28;19950;-97
2022/08/06 11:11:46;;;;;;;;;;;36.70;32.70;;;;;;5074596;28;19985;-96
2022/08/06 11:14:14;;;;;;;;;;;36.80;31.70;;;;;;5075003;28;20016;-96
2022/08/06 11:16:40;;;;;;;;;;;36.90;33.80;;;;;;5071129;28;19953;-96
2022/08/06 11:19:10;;;;;;;;;;;37.20;34.10;;;;;;5073977;28;20007;-96
2022/08/06 11:21:37;;;;;;;;;;;37.40;33.80;;;;;;5074323;28;19968;-96
2022/08/06 11:24:04;;;;;;;;;;;37.50;34.10;;;;;;5074723;28;19943;-96
2022/08/06 11:26:41;;;;;;;;;;;37.70;32.20;;;;;;5076912;28;19968;-96
2022/08/06 11:29:13;;;;;;;;;;;37.90;32.30;;;;;;5076399;28;19943;-96
2022/08/06 11:31:43;;;;;;;;;;;38.00;32.30;;;;;;5057979;28;19955;-97
2022/08/06 11:34:14;;;;;;;;;;;38.10;30.30;;;;;;5071196;28;19967;-96
2022/08/06 11:36:46;;;;;;;;;;;38.10;29.80;;;;;;5068742;28;19990;-96
2022/08/06 11:39:12;;;;;;;;;;;37.90;30.80;;;;;;5071208;28;19949;-96
2022/08/06 11:41:51;;;;;;;;;;;38.00;30.70;;;;;;5071882;28;19956;-96
2022/08/06 11:44:18;;;;;;;;;;;38.10;33.50;;;;;;5061342;28;19978;-96
2022/08/06 11:46:48;;;;;;;;;;;38.10;31.20;;;;;;5070053;28;19947;-96
2022/08/06 11:49:20;;;;;;;;;;;38.20;31.40;;;;;;5067068;28;19946;-96
2022/08/06 11:51:56;;;;;;;;;;;38.50;33.50;;;;;;5070591;28;19939;-96
2022/08/06 11:54:25;;;;;;;;;;;38.70;31.90;;;;;;5067894;28;19942;-96
2022/08/06 11:57:06;;;;;;;;;;;38.90;29.40;;;;;;5064701;28;20303;-96
2022/08/06 11:59:33;;;;;;;;;;;38.90;30.60;;;;;;5068830;28;19943;-96
2022/08/06 12:02:01;;;;;;;;;;;39.10;31.00;;;;;;5069565;28;19951;-96
2022/08/06 12:04:35;;;;;;;;;;;39.30;31.00;;;;;;5068980;28;19941;-96
2022/08/06 12:07:17;;;;;;;;;;;39.60;28.40;;;;;;5066583;28;19942;-97
2022/08/06 12:09:43;;;;;;;;;;;39.60;31.70;;;;;;5070549;28;19976;-96
2022/08/06 12:12:24;;;;;;;;;;;39.50;30.00;;;;;;5069341;28;19949;-96
2022/08/06 12:14:51;;;;;;;;;;;39.60;30.40;;;;;;5074134;28;19951;-97
2022/08/06 12:17:21;;;;;;;;;;;39.80;29.80;;;;;;5069578;28;19940;-96
2022/08/06 12:19:49;;;;;;;;;;;40.10;30.40;;;;;;5072083;28;20011;-96
2022/08/06 12:22:18;;;;;;;;;;;40.30;29.70;;;;;;5062507;28;19993;-96
2022/08/06 12:36:58;;;;;;;;;;;40.50;28.60;;;;;;6196910;22;3104577;-96
2022/08/06 12:40:23;;;;;;;;;;;41.60;26.70;;;;;;6341408;22;19930;-96
2022/08/06 12:42:25;;;;;;;;;;;42.00;25.50;;;;;;6342709;22;19940;-97
2022/08/06 12:44:58;;;;;;;;;;;42.30;26.30;;;;;;6344426;22;19963;-96
2022/08/06 12:47:46;;;;;;;;;;;42.60;26.10;;;;;;6344043;22;19943;-96
2022/08/06 12:50:18;;;;;;;;;;;42.30;25.60;;;;;;6343109;22;19978;-96
2022/08/06 12:52:45;;;;;;;;;;;41.90;25.90;;;;;;6338144;22;19934;-96
2022/08/06 12:55:18;;;;;;;;;;;41.00;26.50;;;;;;6337796;22;19942;-96
2022/08/06 12:57:48;;;;;;;;;;;40.80;26.90;;;;;;6339646;22;19940;-96
2022/08/06 13:00:14;;;;;;;;;;;41.10;26.50;;;;;;6336727;22;19976;-96
2022/08/06 13:02:40;;;;;;;;;;;40.60;27.20;;;;;;6331923;22;19938;-96
2022/08/06 13:05:06;;;;;;;;;;;39.60;28.20;;;;;;6334750;22;19961;-96
2022/08/06 13:07:32;;;;;;;;;;;38.70;30.10;;;;;;6337520;22;19940;-96
2022/08/06 13:09:59;;;;;;;;;;;37.00;31.50;;;;;;6339518;22;19920;-96
2022/08/06 13:12:24;;;;;;;;;;;36.30;33.30;;;;;;6335206;22;19942;-96
2022/08/06 13:14:59;;;;;;;;;;;35.90;33.40;;;;;;6334579;22;19937;-96
2022/08/06 13:17:26;;;;;;;;;;;35.50;34.10;;;;;;6336085;22;19938;-96
2022/08/06 13:19:55;;;;;;;;;;;35.20;34.70;;;;;;6335468;22;19945;-96
2022/08/06 13:22:22;;;;;;;;;;;35.20;35.20;;;;;;6331890;22;19935;-96
2022/08/06 13:24:48;;;;;;;;;;;35.60;34.70;;;;;;6333414;22;19960;-96
2022/08/06 13:27:14;;;;;;;;;;;35.70;35.10;;;;;;6333911;22;19979;-96
2022/08/06 13:29:59;;;;;;;;;;;35.20;36.40;;;;;;6336403;22;19937;-96
2022/08/06 13:32:26;;;;;;;;;;;34.90;36.70;;;;;;6330386;22;19941;-96
2022/08/06 13:34:55;;;;;;;;;;;34.80;36.60;;;;;;6328976;22;19965;-96
2022/08/06 13:37:39;;;;;;;;;;;34.70;37.50;;;;;;6323582;22;19969;-96
2022/08/06 13:40:05;;;;;;;;;;;34.70;37.30;;;;;;6318311;22;19944;-96
2022/08/06 13:42:31;;;;;;;;;;;35.50;36.60;;;;;;6319759;22;19939;-96
2022/08/06 13:44:56;;;;;;;;;;;35.90;36.30;;;;;;6321957;22;19998;-96
2022/08/06 13:47:26;;;;;;;;;;;35.70;36.50;;;;;;6324942;22;20292;-96
2022/08/06 13:49:52;;;;;;;;;;;35.30;36.60;;;;;;6322249;22;19939;-96
2022/08/06 13:52:18;;;;;;;;;;;34.70;36.90;;;;;;6320903;22;20283;-96
2022/08/06 13:54:44;;;;;;;;;;;34.20;38.20;;;;;;6318748;22;19991;-96
2022/08/06 13:57:11;;;;;;;;;;;33.90;39.20;;;;;;6318215;22;19940;-96
2022/08/06 13:59:37;;;;;;;;;;;33.80;39.30;;;;;;6319515;22;19938;-96
2022/08/06 14:02:04;;;;;;;;;;;33.70;40.60;;;;;;6323136;22;19933;-96
2022/08/06 14:04:31;;;;;;;;;;;33.80;38.20;;;;;;6318323;22;20031;-96
2022/08/06 14:06:57;;;;;;;;;;;33.70;38.10;;;;;;6317477;22;19937;-96
2022/08/06 14:09:24;;;;;;;;;;;33.30;39.00;;;;;;6317259;22;19928;-96
2022/08/06 14:11:52;;;;;;;;;;;33.10;39.40;;;;;;6314973;22;20267;-96
2022/08/06 14:14:18;;;;;;;;;;;32.70;40.80;;;;;;6317381;22;19945;-96
2022/08/06 14:16:44;;;;;;;;;;;32.50;41.80;;;;;;6323818;22;19949;-96
2022/08/06 14:19:10;;;;;;;;;;;32.50;43.00;;;;;;6317040;22;19941;-96
2022/08/06 14:21:35;;;;;;;;;;;32.00;50.10;;;;;;6314034;22;19930;-96
2022/08/06 14:24:01;;;;;;;;;;;31.30;54.30;;;;;;6312606;22;20010;-96
2022/08/06 14:26:27;;;;;;;;;;;30.20;56.80;;;;;;6312091;22;20039;-96
2022/08/06 14:28:52;;;;;;;;;;;29.80;57.10;;;;;;6318519;22;19941;-96
2022/08/06 14:31:18;;;;;;;;;;;29.30;60.10;;;;;;6319153;22;20267;-96
2022/08/06 14:33:44;;;;;;;;;;;29.20;60.10;;;;;;6317353;22;20018;-96
2022/08/06 14:36:09;;;;;;;;;;;28.90;64.10;;;;;;6316931;22;19996;-96
2022/08/06 14:38:35;;;;;;;;;;;28.60;66.50;;;;;;6314825;22;19975;-96
2022/08/06 14:46:33;;;;;;;;;;;27.60;66.80;;;;;;6316292;22;19941;-96
2022/08/06 14:48:59;;;;;;;;;;;27.70;68.00;;;;;;6313034;22;19961;-96
2022/08/06 14:51:25;;;;;;;;;;;27.70;68.50;;;;;;6311551;22;19940;-96
2022/08/06 14:53:51;;;;;;;;;;;27.70;70.50;;;;;;6317706;22;20358;-96